sensor_id;sensor_type;location;lat;lon;timestamp;pressure;altitude;pressure_sealevel;temperature;humidity
2785;BME280;57944;48.722;9.316;2022-08-03T00:01:01;98131.91;;;17.79;100.00
2785;BME280;57944;48.722;9.316;2022-08-03T00:03:32;98133.88;;;17.77;100.00
2785;BME280;57944;48.722;9.316;2022-08-03T00:06:02;98132.19;;;17.82;100.00
2785;BME280;57944;48.722;9.316;2022-08-03T00:08:33;98132.06;;;17.89;100.00
2785;BME280;57944;48.722;9.316;2022-08-03T00:11:06;98129.00;;;17.92;100.00
2785;BME280;57944;48.722;9.316;2022-08-03T00:13:36;98128.38;;;17.85;100.00
2785;BME280;57944;48.722;9.316;2022-08-03T00:16:09;98129.41;;;17.84;100.00
2785;BME280;57944;48.722;9.316;2022-08-03T00:18:40;98128.28;;;17.80;100.00
2785;BME280;57944;48.722;9.316;2022-08-03T00:21:11;98124.31;;;17.89;100.00
2785;BME280;57944;48.722;9.316;2022-08-03T00:23:41;98129.47;;;17.89;100.00
2785;BME280;57944;48.722;9.316;2022-08-03T00:26:19;98127.38;;;17.86;100.00
2785;BME280;57944;48.722;9.316;2022-08-03T00:28:49;98126.66;;;17.91;100.00
2785;BME280;57944;48.722;9.316;2022-08-03T00:31:22;98121.97;;;17.88;100.00
2785;BME280;57944;48.722;9.316;2022-08-03T00:34:12;98128.38;;;17.85;100.00
2785;BME280;57944;48.722;9.316;2022-08-03T00:36:42;98122.81;;;17.76;100.00
2785;BME280;57944;48.722;9.316;2022-08-03T00:39:12;98128.81;;;17.65;100.00
2785;BME280;57944;48.722;9.316;2022-08-03T00:41:42;98129.94;;;17.69;100.00
2785;BME280;57944;48.722;9.316;2022-08-03T00:44:12;98124.53;;;17.71;100.00
2785;BME280;57944;48.722;9.316;2022-08-03T00:46:45;98123.91;;;17.63;100.00
2785;BME280;57944;48.722;9.316;2022-08-03T00:49:15;98128.13;;;17.70;100.00
2785;BME280;57944;48.722;9.316;2022-08-03T00:51:45;98127.34;;;17.69;100.00
2785;BME280;57944;48.722;9.316;2022-08-03T00:54:16;98126.16;;;17.60;100.00
2785;BME280;57944;48.722;9.316;2022-08-03T00:56:48;98128.25;;;17.63;100.00
2785;BME280;57944;48.722;9.316;2022-08-03T00:59:26;98125.53;;;17.70;100.00
2785;BME280;57944;48.722;9.316;2022-08-03T01:01:59;98124.81;;;17.57;100.00
2785;BME280;57944;48.722;9.316;2022-08-03T01:04:29;98123.88;;;17.47;100.00
2785;BME280;57944;48.722;9.316;2022-08-03T01:07:09;98126.94;;;17.60;100.00
2785;BME280;57944;48.722;9.316;2022-08-03T01:09:54;98121.72;;;17.55;100.00
2785;BME280;57944;48.722;9.316;2022-08-03T01:12:37;98129.19;;;17.40;100.00
2785;BME280;57944;48.722;9.316;2022-08-03T01:15:20;98119.34;;;17.37;100.00
2785;BME280;57944;48.722;9.316;2022-08-03T01:18:02;98121.97;;;17.25;100.00
2785;BME280;57944;48.722;9.316;2022-08-03T01:20:39;98120.66;;;17.23;100.00
2785;BME280;57944;48.722;9.316;2022-08-03T01:23:34;98111.28;;;17.05;100.00
2785;BME280;57944;48.722;9.316;2022-08-03T01:26:24;98112.09;;;17.05;100.00
2785;BME280;57944;48.722;9.316;2022-08-03T01:32:00;98114.38;;;16.90;100.00
2785;BME280;57944;48.722;9.316;2022-08-03T01:34:59;98098.63;;;16.86;100.00
2785;BME280;57944;48.722;9.316;2022-08-03T01:37:38;98099.59;;;16.85;100.00
2785;BME280;57944;48.722;9.316;2022-08-03T01:40:12;98097.13;;;16.90;100.00
2785;BME280;57944;48.722;9.316;2022-08-03T01:42:45;98089.56;;;16.84;100.00
2785;BME280;57944;48.722;9.316;2022-08-03T01:45:18;98090.03;;;16.81;100.00
2785;BME280;57944;48.722;9.316;2022-08-03T01:47:54;98094.03;;;16.77;100.00
2785;BME280;57944;48.722;9.316;2022-08-03T01:50:28;98099.19;;;16.77;100.00
2785;BME280;57944;48.722;9.316;2022-08-03T01:53:01;98099.63;;;16.73;100.00
2785;BME280;57944;48.722;9.316;2022-08-03T01:55:35;98093.25;;;16.76;100.00
2785;BME280;57944;48.722;9.316;2022-08-03T01:58:07;98095.19;;;16.69;100.00
2785;BME280;57944;48.722;9.316;2022-08-03T02:00:43;98087.66;;;16.67;100.00
2785;BME280;57944;48.722;9.316;2022-08-03T02:03:18;98096.63;;;16.65;100.00
2785;BME280;57944;48.722;9.316;2022-08-03T02:05:52;98086.78;;;16.62;100.00
2785;BME280;57944;48.722;9.316;2022-08-03T02:08:45;98091.06;;;16.56;100.00
2785;BME280;57944;48.722;9.316;2022-08-03T02:11:17;98090.03;;;16.57;100.00
2785;BME280;57944;48.722;9.316;2022-08-03T02:13:49;98083.34;;;16.56;100.00
2785;BME280;57944;48.722;9.316;2022-08-03T02:16:23;98085.81;;;16.51;100.00
2785;BME280;57944;48.722;9.316;2022-08-03T02:18:59;98089.41;;;16.50;100.00
2785;BME280;57944;48.722;9.316;2022-08-03T02:21:35;98092.97;;;16.49;100.00
2785;BME280;57944;48.722;9.316;2022-08-03T02:24:26;98090.84;;;16.46;100.00
2785;BME280;57944;48.722;9.316;2022-08-03T02:26:57;98088.97;;;16.41;100.00
2785;BME280;57944;48.722;9.316;2022-08-03T02:29:32;98091.41;;;16.48;100.00
2785;BME280;57944;48.722;9.316;2022-08-03T02:32:10;98092.44;;;16.47;100.00
2785;BME280;57944;48.722;9.316;2022-08-03T02:34:46;98090.84;;;16.46;100.00
2785;BME280;57944;48.722;9.316;2022-08-03T02:37:18;98096.09;;;16.51;100.00
2785;BME280;57944;48.722;9.316;2022-08-03T02:39:51;98093.88;;;16.43;100.00
2785;BME280;57944;48.722;9.316;2022-08-03T02:42:24;98093.66;;;16.44;100.00
2785;BME280;57944;48.722;9.316;2022-08-03T02:44:59;98097.47;;;16.42;100.00
2785;BME280;57944;48.722;9.316;2022-08-03T02:47:33;98086.50;;;16.35;100.00
2785;BME280;57944;48.722;9.316;2022-08-03T02:50:25;98088.97;;;16.29;100.00
2785;BME280;57944;48.722;9.316;2022-08-03T02:52:57;98088.97;;;16.29;100.00
2785;BME280;57944;48.722;9.316;2022-08-03T02:55:29;98083.94;;;16.35;100.00
2785;BME280;57944;48.722;9.316;2022-08-03T02:58:10;98089.88;;;16.23;100.00
2785;BME280;57944;48.722;9.316;2022-08-03T03:00:43;98083.50;;;16.26;100.00
2785;BME280;57944;48.722;9.316;2022-08-03T03:03:14;98083.19;;;16.22;100.00
2785;BME280;57944;48.722;9.316;2022-08-03T03:05:49;98083.19;;;16.22;100.00
2785;BME280;57944;48.722;9.316;2022-08-03T03:08:26;98087.88;;;16.25;100.00
2785;BME280;57944;48.722;9.316;2022-08-03T03:10:59;98093.34;;;16.17;100.00
2785;BME280;57944;48.722;9.316;2022-08-03T03:13:31;98087.09;;;16.13;100.00
2785;BME280;57944;48.722;9.316;2022-08-03T03:16:05;98087.31;;;16.12;100.00
2785;BME280;57944;48.722;9.316;2022-08-03T03:18:37;98089.00;;;16.06;100.00
2785;BME280;57944;48.722;9.316;2022-08-03T03:21:12;98088.44;;;16.04;100.00
2785;BME280;57944;48.722;9.316;2022-08-03T03:23:45;98081.16;;;16.13;100.00
2785;BME280;57944;48.722;9.316;2022-08-03T03:26:15;98081.28;;;16.18;100.00
2785;BME280;57944;48.722;9.316;2022-08-03T03:28:46;98076.34;;;16.04;100.00
2785;BME280;57944;48.722;9.316;2022-08-03T03:31:16;98072.47;;;16.02;100.00
2785;BME280;57944;48.722;9.316;2022-08-03T03:33:47;98079.28;;;16.08;100.00
2785;BME280;57944;48.722;9.316;2022-08-03T03:36:19;98082.97;;;16.12;100.00
2785;BME280;57944;48.722;9.316;2022-08-03T03:38:49;98078.25;;;16.09;100.00
2785;BME280;57944;48.722;9.316;2022-08-03T03:41:20;98075.56;;;16.04;100.00
2785;BME280;57944;48.722;9.316;2022-08-03T03:43:50;98082.31;;;16.05;100.00
2785;BME280;57944;48.722;9.316;2022-08-03T03:46:20;98072.78;;;16.05;100.00
2785;BME280;57944;48.722;9.316;2022-08-03T03:48:50;98077.03;;;16.00;100.00
2785;BME280;57944;48.722;9.316;2022-08-03T03:51:23;98078.59;;;16.01;100.00
2785;BME280;57944;48.722;9.316;2022-08-03T03:53:55;98080.59;;;15.99;100.00
2785;BME280;57944;48.722;9.316;2022-08-03T03:56:27;98085.53;;;16.00;100.00
2785;BME280;57944;48.722;9.316;2022-08-03T03:58:57;98087.53;;;16.10;100.00
2785;BME280;57944;48.722;9.316;2022-08-03T04:01:28;98083.97;;;16.11;100.00
2785;BME280;57944;48.722;9.316;2022-08-03T04:03:58;98080.72;;;16.16;100.00
2785;BME280;57944;48.722;9.316;2022-08-03T04:06:51;98087.44;;;16.17;100.00
2785;BME280;57944;48.722;9.316;2022-08-03T04:09:35;98087.00;;;16.08;100.00
2785;BME280;57944;48.722;9.316;2022-08-03T04:12:25;98088.09;;;16.12;100.00
2785;BME280;57944;48.722;9.316;2022-08-03T04:14:59;98082.97;;;16.12;100.00
2785;BME280;57944;48.722;9.316;2022-08-03T04:17:31;98089.22;;;16.16;100.00
2785;BME280;57944;48.722;9.316;2022-08-03T04:20:03;98100.38;;;16.10;100.00
2785;BME280;57944;48.722;9.316;2022-08-03T04:22:37;98094.25;;;16.23;100.00
2785;BME280;57944;48.722;9.316;2022-08-03T04:25:10;98091.47;;;16.24;100.00
2785;BME280;57944;48.722;9.316;2022-08-03T04:27:48;98092.25;;;16.25;100.00
2785;BME280;57944;48.722;9.316;2022-08-03T04:30:46;98092.25;;;16.25;100.00
2785;BME280;57944;48.722;9.316;2022-08-03T04:33:19;98093.69;;;16.33;100.00
2785;BME280;57944;48.722;9.316;2022-08-03T04:36:00;98099.03;;;16.43;100.00
2785;BME280;57944;48.722;9.316;2022-08-03T04:38:39;98102.16;;;16.45;100.00
2785;BME280;57944;48.722;9.316;2022-08-03T04:41:11;98111.22;;;16.47;100.00
2785;BME280;57944;48.722;9.316;2022-08-03T04:43:43;98114.66;;;16.53;100.00
2785;BME280;57944;48.722;9.316;2022-08-03T04:46:14;98114.19;;;16.68;100.00
2785;BME280;57944;48.722;9.316;2022-08-03T04:48:45;98112.94;;;16.82;100.00
2785;BME280;57944;48.722;9.316;2022-08-03T04:51:15;98120.44;;;17.12;100.00
2785;BME280;57944;48.722;9.316;2022-08-03T04:53:48;98118.78;;;17.80;100.00
2785;BME280;57944;48.722;9.316;2022-08-03T04:56:18;98118.50;;;18.54;100.00
2785;BME280;57944;48.722;9.316;2022-08-03T04:58:49;98116.94;;;19.25;100.00
2785;BME280;57944;48.722;9.316;2022-08-03T05:01:19;98133.19;;;19.79;100.00
2785;BME280;57944;48.722;9.316;2022-08-03T05:03:49;98138.75;;;20.41;100.00
2785;BME280;57944;48.722;9.316;2022-08-03T05:06:19;98129.13;;;20.94;100.00
2785;BME280;57944;48.722;9.316;2022-08-03T05:08:53;98135.50;;;21.54;100.00
2785;BME280;57944;48.722;9.316;2022-08-03T05:11:24;98138.06;;;21.90;100.00
2785;BME280;57944;48.722;9.316;2022-08-03T05:13:54;98134.88;;;22.39;100.00
2785;BME280;57944;48.722;9.316;2022-08-03T05:16:24;98135.97;;;22.88;100.00
2785;BME280;57944;48.722;9.316;2022-08-03T05:18:54;98135.66;;;23.05;100.00
2785;BME280;57944;48.722;9.316;2022-08-03T05:21:24;98137.72;;;23.47;100.00
2785;BME280;57944;48.722;9.316;2022-08-03T05:24:17;98147.06;;;23.88;100.00
2785;BME280;57944;48.722;9.316;2022-08-03T05:26:47;98139.78;;;24.38;95.71
2785;BME280;57944;48.722;9.316;2022-08-03T05:29:17;98145.53;;;24.83;90.86
2785;BME280;57944;48.722;9.316;2022-08-03T05:31:47;98138.88;;;25.09;87.33
2785;BME280;57944;48.722;9.316;2022-08-03T05:34:17;98136.66;;;25.54;83.63
2785;BME280;57944;48.722;9.316;2022-08-03T05:36:47;98140.34;;;25.53;81.91
2785;BME280;57944;48.722;9.316;2022-08-03T05:39:19;98144.97;;;25.75;78.87
2785;BME280;57944;48.722;9.316;2022-08-03T05:41:49;98147.00;;;26.25;75.77
2785;BME280;57944;48.722;9.316;2022-08-03T05:44:19;98139.91;;;26.67;71.68
2785;BME280;57944;48.722;9.316;2022-08-03T05:46:51;98135.09;;;26.96;68.77
2785;BME280;57944;48.722;9.316;2022-08-03T05:49:21;98144.63;;;27.15;68.38
2785;BME280;57944;48.722;9.316;2022-08-03T05:51:52;98136.94;;;27.32;66.12
2785;BME280;57944;48.722;9.316;2022-08-03T05:54:44;98135.13;;;27.87;63.38
2785;BME280;57944;48.722;9.316;2022-08-03T05:57:23;98133.47;;;28.39;59.87
2785;BME280;57944;48.722;9.316;2022-08-03T05:59:54;98135.81;;;28.58;58.55
2785;BME280;57944;48.722;9.316;2022-08-03T06:02:25;98130.81;;;29.05;56.13
2785;BME280;57944;48.722;9.316;2022-08-03T06:04:55;98123.50;;;29.54;53.81
2785;BME280;57944;48.722;9.316;2022-08-03T06:07:25;98131.19;;;29.77;51.66
2785;BME280;57944;48.722;9.316;2022-08-03T06:09:58;98123.50;;;29.46;52.00
2785;BME280;57944;48.722;9.316;2022-08-03T06:12:49;98124.94;;;29.08;53.32
2785;BME280;57944;48.722;9.316;2022-08-03T06:15:19;98130.00;;;28.87;54.05
2785;BME280;57944;48.722;9.316;2022-08-03T06:17:51;98131.34;;;28.50;55.76
2785;BME280;57944;48.722;9.316;2022-08-03T06:20:28;98126.56;;;28.43;56.75
2785;BME280;57944;48.722;9.316;2022-08-03T06:22:58;98134.72;;;28.42;56.28
2785;BME280;57944;48.722;9.316;2022-08-03T06:25:31;98137.81;;;28.44;55.80
2785;BME280;57944;48.722;9.316;2022-08-03T06:28:01;98133.53;;;28.65;55.42
2785;BME280;57944;48.722;9.316;2022-08-03T06:30:31;98129.06;;;28.74;54.99
2785;BME280;57944;48.722;9.316;2022-08-03T06:33:01;98130.63;;;29.19;53.35
2785;BME280;57944;48.722;9.316;2022-08-03T06:35:34;98130.19;;;29.34;52.38
2785;BME280;57944;48.722;9.316;2022-08-03T06:38:08;98129.38;;;29.43;52.32
2785;BME280;57944;48.722;9.316;2022-08-03T06:40:41;98130.59;;;30.10;49.67
2785;BME280;57944;48.722;9.316;2022-08-03T06:43:14;98136.66;;;30.61;48.43
2785;BME280;57944;48.722;9.316;2022-08-03T06:45:44;98137.28;;;30.87;46.90
2785;BME280;57944;48.722;9.316;2022-08-03T06:48:15;98130.59;;;30.10;48.99
2785;BME280;57944;48.722;9.316;2022-08-03T06:50:45;98141.22;;;30.52;47.99
2785;BME280;57944;48.722;9.316;2022-08-03T06:53:15;98138.63;;;30.93;46.65
2785;BME280;57944;48.722;9.316;2022-08-03T06:55:50;98144.13;;;31.01;46.52
2785;BME280;57944;48.722;9.316;2022-08-03T06:58:21;98138.03;;;31.09;46.50
2785;BME280;57944;48.722;9.316;2022-08-03T07:00:52;98143.25;;;31.51;45.16
2785;BME280;57944;48.722;9.316;2022-08-03T07:03:22;98141.97;;;31.57;44.57
2785;BME280;57944;48.722;9.316;2022-08-03T07:05:52;98146.75;;;31.43;44.94
2785;BME280;57944;48.722;9.316;2022-08-03T07:08:22;98149.38;;;31.43;45.60
2785;BME280;57944;48.722;9.316;2022-08-03T07:11:03;98140.75;;;31.33;44.98
2785;BME280;57944;48.722;9.316;2022-08-03T07:13:34;98140.94;;;31.95;44.18
2785;BME280;57944;48.722;9.316;2022-08-03T07:16:04;98138.09;;;32.49;42.76
2785;BME280;57944;48.722;9.316;2022-08-03T07:18:37;98139.91;;;33.57;41.38
2785;BME280;57944;48.722;9.316;2022-08-03T07:21:07;98136.09;;;34.38;39.66
2785;BME280;57944;48.722;9.316;2022-08-03T07:23:38;98131.22;;;34.56;38.29
2785;BME280;57944;48.722;9.316;2022-08-03T07:26:11;98132.75;;;34.96;37.19
2785;BME280;57944;48.722;9.316;2022-08-03T07:28:41;98139.34;;;34.47;37.91
2785;BME280;57944;48.722;9.316;2022-08-03T07:31:11;98136.09;;;34.38;38.03
2785;BME280;57944;48.722;9.316;2022-08-03T07:33:41;98126.69;;;34.56;38.58
2785;BME280;57944;48.722;9.316;2022-08-03T07:36:12;98131.03;;;34.84;37.94
2785;BME280;57944;48.722;9.316;2022-08-03T07:38:42;98132.91;;;34.83;38.49
2785;BME280;57944;48.722;9.316;2022-08-03T07:41:15;98133.59;;;35.00;37.91
2785;BME280;57944;48.722;9.316;2022-08-03T07:43:45;98134.44;;;34.65;38.00
2785;BME280;57944;48.722;9.316;2022-08-03T07:46:15;98143.00;;;35.36;37.69
2785;BME280;57944;48.722;9.316;2022-08-03T07:48:45;98140.06;;;35.87;36.51
2785;BME280;57944;48.722;9.316;2022-08-03T07:51:15;98133.22;;;36.09;35.67
2785;BME280;57944;48.722;9.316;2022-08-03T07:53:45;98136.69;;;35.90;36.21
2785;BME280;57944;48.722;9.316;2022-08-03T07:56:21;98128.81;;;36.20;35.92
2785;BME280;57944;48.722;9.316;2022-08-03T07:58:52;98126.25;;;36.54;35.27
2785;BME280;57944;48.722;9.316;2022-08-03T08:01:23;98133.69;;;36.45;35.64
2785;BME280;57944;48.722;9.316;2022-08-03T08:03:53;98118.06;;;36.66;34.85
2785;BME280;57944;48.722;9.316;2022-08-03T08:06:24;98119.41;;;36.53;35.18
2785;BME280;57944;48.722;9.316;2022-08-03T08:08:54;98118.69;;;37.27;34.14
2785;BME280;57944;48.722;9.316;2022-08-03T08:11:30;98114.31;;;36.71;34.91
2785;BME280;57944;48.722;9.316;2022-08-03T08:14:06;98112.72;;;37.38;33.83
2785;BME280;57944;48.722;9.316;2022-08-03T08:16:36;98113.63;;;37.52;33.73
2785;BME280;57944;48.722;9.316;2022-08-03T08:19:06;98119.94;;;37.85;33.12
2785;BME280;57944;48.722;9.316;2022-08-03T08:21:38;98118.16;;;37.96;32.93
2785;BME280;57944;48.722;9.316;2022-08-03T08:24:28;98114.38;;;37.97;33.10
2785;BME280;57944;48.722;9.316;2022-08-03T08:27:03;98116.47;;;38.36;32.51
2785;BME280;57944;48.722;9.316;2022-08-03T08:29:34;98112.06;;;38.65;31.82
2785;BME280;57944;48.722;9.316;2022-08-03T08:32:13;98116.00;;;39.18;31.20
2785;BME280;57944;48.722;9.316;2022-08-03T08:34:44;98107.59;;;39.02;31.19
2785;BME280;57944;48.722;9.316;2022-08-03T08:37:14;98108.59;;;38.58;31.52
2785;BME280;57944;48.722;9.316;2022-08-03T08:39:44;98102.91;;;38.59;31.26
2785;BME280;57944;48.722;9.316;2022-08-03T08:42:17;98110.44;;;38.47;31.74
2785;BME280;57944;48.722;9.316;2022-08-03T08:44:47;98109.50;;;38.10;32.00
2785;BME280;57944;48.722;9.316;2022-08-03T08:47:18;98107.56;;;38.87;30.41
2785;BME280;57944;48.722;9.316;2022-08-03T08:49:54;98106.91;;;39.62;29.59
2785;BME280;57944;48.722;9.316;2022-08-03T08:52:40;98107.94;;;40.33;28.23
2785;BME280;57944;48.722;9.316;2022-08-03T08:55:13;98104.59;;;39.93;27.86
2785;BME280;57944;48.722;9.316;2022-08-03T08:57:49;98104.16;;;40.27;27.80
2785;BME280;57944;48.722;9.316;2022-08-03T09:00:21;98101.50;;;40.12;27.19
2785;BME280;57944;48.722;9.316;2022-08-03T09:02:51;98103.03;;;40.03;27.18
2785;BME280;57944;48.722;9.316;2022-08-03T09:05:21;98095.38;;;40.12;26.85
2785;BME280;57944;48.722;9.316;2022-08-03T09:08:11;98102.28;;;39.98;26.91
2785;BME280;57944;48.722;9.316;2022-08-03T09:10:41;98106.06;;;40.23;26.45
2785;BME280;57944;48.722;9.316;2022-08-03T09:13:15;98100.78;;;41.48;25.12
2785;BME280;57944;48.722;9.316;2022-08-03T09:15:45;98097.41;;;41.37;25.40
2785;BME280;57944;48.722;9.316;2022-08-03T09:18:28;98102.25;;;41.01;25.25
2785;BME280;57944;48.722;9.316;2022-08-03T09:21:13;98095.75;;;41.58;24.88
2785;BME280;57944;48.722;9.316;2022-08-03T09:24:00;98096.28;;;41.38;24.81
2785;BME280;57944;48.722;9.316;2022-08-03T09:26:35;98096.53;;;42.00;24.17
2785;BME280;57944;48.722;9.316;2022-08-03T09:29:10;98087.28;;;42.38;23.91
2785;BME280;57944;48.722;9.316;2022-08-03T09:31:44;98086.91;;;42.36;23.68
2785;BME280;57944;48.722;9.316;2022-08-03T09:34:16;98085.34;;;42.70;22.91
2785;BME280;57944;48.722;9.316;2022-08-03T09:36:49;98084.41;;;42.53;23.37
2785;BME280;57944;48.722;9.316;2022-08-03T09:39:22;98083.69;;;42.49;23.26
2785;BME280;57944;48.722;9.316;2022-08-03T09:42:10;98081.06;;;42.76;23.58
2785;BME280;57944;48.722;9.316;2022-08-03T09:44:46;98083.22;;;42.57;23.86
2785;BME280;57944;48.722;9.316;2022-08-03T09:47:28;98078.34;;;41.80;24.93
2785;BME280;57944;48.722;9.316;2022-08-03T09:50:00;98079.16;;;41.28;25.23
2785;BME280;57944;48.722;9.316;2022-08-03T09:52:33;98082.41;;;41.54;24.73
2785;BME280;57944;48.722;9.316;2022-08-03T09:55:19;98078.09;;;41.64;23.97
2785;BME280;57944;48.722;9.316;2022-08-03T09:58:11;98075.91;;;41.93;24.13
2785;BME280;57944;48.722;9.316;2022-08-03T10:00:57;98071.28;;;41.11;25.23
2785;BME280;57944;48.722;9.316;2022-08-03T10:03:31;98073.38;;;41.79;24.38
2785;BME280;57944;48.722;9.316;2022-08-03T10:06:22;98074.50;;;42.80;23.60
2785;BME280;57944;48.722;9.316;2022-08-03T10:09:06;98077.06;;;42.57;22.87
2785;BME280;57944;48.722;9.316;2022-08-03T10:11:37;98071.28;;;43.16;23.01
2785;BME280;57944;48.722;9.316;2022-08-03T10:14:10;98065.16;;;43.39;22.33
2785;BME280;57944;48.722;9.316;2022-08-03T10:16:48;98061.47;;;42.79;20.99
2785;BME280;57944;48.722;9.316;2022-08-03T10:19:18;98060.75;;;42.48;21.08
2785;BME280;57944;48.722;9.316;2022-08-03T10:21:54;98064.28;;;41.27;21.89
2785;BME280;57944;48.722;9.316;2022-08-03T10:24:27;98060.97;;;41.09;22.70
2785;BME280;57944;48.722;9.316;2022-08-03T10:27:02;98059.19;;;40.88;23.24
2785;BME280;57944;48.722;9.316;2022-08-03T10:29:37;98048.03;;;41.90;22.42
2785;BME280;57944;48.722;9.316;2022-08-03T10:32:17;98052.28;;;40.94;22.66
2785;BME280;57944;48.722;9.316;2022-08-03T10:34:50;98054.59;;;41.82;22.45
2785;BME280;57944;48.722;9.316;2022-08-03T10:37:32;98057.81;;;42.38;21.91
2785;BME280;57944;48.722;9.316;2022-08-03T10:40:06;98046.69;;;42.67;21.44
2785;BME280;57944;48.722;9.316;2022-08-03T10:42:58;98042.44;;;42.43;21.91
2785;BME280;57944;48.722;9.316;2022-08-03T10:45:35;98034.69;;;43.02;21.05
2785;BME280;57944;48.722;9.316;2022-08-03T10:48:12;98038.69;;;42.36;21.57
2785;BME280;57944;48.722;9.316;2022-08-03T10:50:44;98034.75;;;42.45;22.17
2785;BME280;57944;48.722;9.316;2022-08-03T10:53:15;98036.88;;;42.57;21.46
2785;BME280;57944;48.722;9.316;2022-08-03T10:56:03;98029.66;;;42.81;21.51
2785;BME280;57944;48.722;9.316;2022-08-03T10:59:06;98031.00;;;43.63;20.26
2785;BME280;57944;48.722;9.316;2022-08-03T11:01:55;98028.97;;;43.47;20.36
2785;BME280;57944;48.722;9.316;2022-08-03T11:04:29;98027.16;;;43.41;20.65
2785;BME280;57944;48.722;9.316;2022-08-03T11:07:19;98023.88;;;43.53;20.97
2785;BME280;57944;48.722;9.316;2022-08-03T11:09:51;98021.56;;;42.84;21.43
2785;BME280;57944;48.722;9.316;2022-08-03T11:12:25;98027.22;;;44.01;20.09
2785;BME280;57944;48.722;9.316;2022-08-03T11:15:00;98025.13;;;44.28;20.28
2785;BME280;57944;48.722;9.316;2022-08-03T11:17:31;98023.88;;;44.33;20.29
2785;BME280;57944;48.722;9.316;2022-08-03T11:20:47;98015.03;;;43.76;20.46
2785;BME280;57944;48.722;9.316;2022-08-03T11:23:38;98014.78;;;43.47;20.58
2785;BME280;57944;48.722;9.316;2022-08-03T11:26:29;98014.22;;;43.12;20.99
2785;BME280;57944;48.722;9.316;2022-08-03T11:29:26;98012.94;;;43.44;20.54
2785;BME280;57944;48.722;9.316;2022-08-03T11:31:57;98012.38;;;43.33;21.16
2785;BME280;57944;48.722;9.316;2022-08-03T11:34:27;98010.44;;;43.53;20.92
2785;BME280;57944;48.722;9.316;2022-08-03T11:37:27;98010.88;;;43.71;20.06
2785;BME280;57944;48.722;9.316;2022-08-03T11:40:00;98001.94;;;43.98;20.13
2785;BME280;57944;48.722;9.316;2022-08-03T11:42:43;97999.97;;;44.02;20.12
2785;BME280;57944;48.722;9.316;2022-08-03T11:45:16;98002.56;;;41.83;22.53
2785;BME280;57944;48.722;9.316;2022-08-03T11:47:48;98000.13;;;41.24;22.65
2785;BME280;57944;48.722;9.316;2022-08-03T11:50:21;98000.16;;;41.96;22.53
2785;BME280;57944;48.722;9.316;2022-08-03T11:52:54;97998.13;;;42.07;21.98
2785;BME280;57944;48.722;9.316;2022-08-03T11:55:25;98001.22;;;42.02;22.66
2785;BME280;57944;48.722;9.316;2022-08-03T11:57:58;97989.44;;;42.54;21.67
2785;BME280;57944;48.722;9.316;2022-08-03T12:00:49;97996.31;;;43.49;21.44
2785;BME280;57944;48.722;9.316;2022-08-03T12:03:20;97994.00;;;44.64;20.15
2785;BME280;57944;48.722;9.316;2022-08-03T12:05:52;97984.59;;;44.39;20.77
2785;BME280;57944;48.722;9.316;2022-08-03T12:08:34;97979.41;;;43.09;22.03
2785;BME280;57944;48.722;9.316;2022-08-03T12:11:07;97978.41;;;42.21;22.13
2785;BME280;57944;48.722;9.316;2022-08-03T12:13:40;97978.47;;;41.45;23.14
2785;BME280;57944;48.722;9.316;2022-08-03T12:16:31;97981.63;;;42.39;22.90
2785;BME280;57944;48.722;9.316;2022-08-03T12:19:03;97982.25;;;42.20;22.26
2785;BME280;57944;48.722;9.316;2022-08-03T12:21:34;97981.53;;;42.16;22.08
2785;BME280;57944;48.722;9.316;2022-08-03T12:24:08;97988.41;;;42.17;22.64
2785;BME280;57944;48.722;9.316;2022-08-03T12:26:44;97981.59;;;42.67;22.07
2785;BME280;57944;48.722;9.316;2022-08-03T12:29:26;97981.88;;;42.18;22.67
2785;BME280;57944;48.722;9.316;2022-08-03T12:31:56;97976.63;;;42.42;22.54
2785;BME280;57944;48.722;9.316;2022-08-03T12:34:44;97976.16;;;42.47;22.03
2785;BME280;57944;48.722;9.316;2022-08-03T12:37:18;97982.28;;;42.74;22.54
2785;BME280;57944;48.722;9.316;2022-08-03T12:39:54;97975.00;;;43.42;21.15
2785;BME280;57944;48.722;9.316;2022-08-03T12:42:32;97967.91;;;42.61;21.48
2785;BME280;57944;48.722;9.316;2022-08-03T12:45:22;97961.53;;;42.51;21.97
2785;BME280;57944;48.722;9.316;2022-08-03T12:47:54;97964.34;;;41.79;22.95
2785;BME280;57944;48.722;9.316;2022-08-03T12:50:29;97947.75;;;40.78;24.85
2785;BME280;57944;48.722;9.316;2022-08-03T12:53:02;97951.69;;;40.59;24.04
2785;BME280;57944;48.722;9.316;2022-08-03T12:55:38;97960.75;;;40.76;24.29
2785;BME280;57944;48.722;9.316;2022-08-03T12:58:30;97960.94;;;40.99;23.82
2785;BME280;57944;48.722;9.316;2022-08-03T13:01:04;97952.69;;;41.28;23.40
2785;BME280;57944;48.722;9.316;2022-08-03T13:03:41;97952.19;;;41.40;23.46
2785;BME280;57944;48.722;9.316;2022-08-03T13:06:19;97950.34;;;42.02;22.69
2785;BME280;57944;48.722;9.316;2022-08-03T13:09:00;97954.72;;;42.70;22.37
2785;BME280;57944;48.722;9.316;2022-08-03T13:12:03;97953.34;;;42.35;22.14
2785;BME280;57944;48.722;9.316;2022-08-03T13:14:34;97949.28;;;42.77;21.52
2785;BME280;57944;48.722;9.316;2022-08-03T13:17:05;97949.59;;;42.56;21.06
2785;BME280;57944;48.722;9.316;2022-08-03T13:19:36;97951.94;;;43.01;20.54
2785;BME280;57944;48.722;9.316;2022-08-03T13:22:14;97956.25;;;43.18;20.81
2785;BME280;57944;48.722;9.316;2022-08-03T13:24:47;97948.16;;;41.90;22.11
2785;BME280;57944;48.722;9.316;2022-08-03T13:27:20;97948.38;;;40.96;23.35
2785;BME280;57944;48.722;9.316;2022-08-03T13:30:10;97945.16;;;41.88;22.38
2785;BME280;57944;48.722;9.316;2022-08-03T13:32:56;97939.78;;;42.46;21.49
2785;BME280;57944;48.722;9.316;2022-08-03T13:35:27;97942.06;;;42.20;21.69
2785;BME280;57944;48.722;9.316;2022-08-03T13:37:57;97937.25;;;41.77;22.01
2785;BME280;57944;48.722;9.316;2022-08-03T13:40:27;97936.66;;;42.51;21.58
2785;BME280;57944;48.722;9.316;2022-08-03T13:43:10;97932.91;;;43.39;20.77
2785;BME280;57944;48.722;9.316;2022-08-03T13:45:40;97931.53;;;41.75;22.22
2785;BME280;57944;48.722;9.316;2022-08-03T13:48:17;97933.59;;;42.52;22.02
2785;BME280;57944;48.722;9.316;2022-08-03T13:51:04;97925.69;;;42.14;22.44
2785;BME280;57944;48.722;9.316;2022-08-03T13:53:50;97930.38;;;42.61;21.19